Time;durP1;ratioP1;P1;durP2;ratioP2;P2;SDS_P1;SDS_P2;PMS_P1;PMS_P2;Temp;Humidity;BMP_temperature;BMP_pressure;BME280_temperature;BME280_humidity;BME280_pressure;Samples;Min_cycle;Max_cycle;Signal;HPM_P1;HPM_P2
2020/12/03 00:01:20;;;;;;;42.98;26.48;;;;;;;-0.32;98.28;100422.11;1678871;84;21606;-68
2020/12/03 00:03:58;;;;;;;39.30;25.05;;;;;;;-0.35;98.49;100429.20;1696697;84;21185;-68
2020/12/03 00:06:39;;;;;;;38.17;22.62;;;;;;;-0.40;98.79;100425.01;1696947;84;21181;-68
2020/12/03 00:09:12;;;;;;;39.70;23.85;;;;;;;-0.41;98.91;100430.30;1682116;84;21198;-68
2020/12/03 00:11:43;;;;;;;47.10;25.35;;;;;;;-0.43;99.00;100437.27;1669714;84;21207;-68
2020/12/03 00:14:11;;;;;;;40.85;24.63;;;;;;;-0.47;99.33;100433.11;1700791;84;21193;-68
2020/12/03 00:16:39;;;;;;;41.00;24.63;;;;;;;-0.47;99.53;100429.21;1692346;84;21622;-68
2020/12/03 00:19:09;;;;;;;41.83;25.48;;;;;;;-0.43;99.66;100432.08;1677720;84;21642;-68
2020/12/03 00:21:48;;;;;;;38.05;23.77;;;;;;;-0.38;99.47;100425.41;1682725;84;21177;-68
2020/12/03 00:24:20;;;;;;;41.83;24.90;;;;;;;-0.36;99.49;100425.73;1696318;84;21193;-68
2020/12/03 00:26:49;;;;;;;;;;;;;;;-0.35;99.05;100424.84;1644214;84;21753;-69
2020/12/03 00:29:16;;;;;;;39.38;23.62;;;;;;;-0.37;98.85;100429.27;1731519;83;20132;-68
2020/12/03 00:31:45;;;;;;;41.42;26.20;;;;;;;-0.37;98.99;100413.67;1723003;83;21205;-68
2020/12/03 00:34:13;;;;;;;45.00;26.48;;;;;;;-0.35;98.93;100415.75;1720394;83;21606;-68
2020/12/03 00:36:41;;;;;;;40.40;25.08;;;;;;;-0.35;98.85;100409.72;1725954;83;21277;-68
2020/12/03 00:39:12;;;;;;;40.03;24.63;;;;;;;-0.35;98.73;100416.21;1731568;83;21756;-68
2020/12/03 00:41:40;;;;;;;31.17;18.37;;;;;;;-0.38;98.51;100415.02;1711881;83;21189;-68
2020/12/03 00:44:08;;;;;;;37.83;25.17;;;;;;;-0.38;98.53;100411.95;1689789;83;21609;-68
2020/12/03 00:46:36;;;;;;;46.88;26.75;;;;;;;-0.40;98.60;100413.78;1731137;83;21185;-68
2020/12/03 00:49:03;;;;;;;41.08;24.45;;;;;;;-0.40;98.63;100409.87;1732461;83;21307;-68
2020/12/03 00:51:32;;;;;;;43.85;24.65;;;;;;;-0.43;98.48;100406.09;1709286;83;21221;-68
2020/12/03 00:54:01;;;;;;;42.80;26.23;;;;;;;-0.45;98.37;100406.61;1690824;83;21169;-68
2020/12/03 00:56:30;;;;;;;42.33;26.25;;;;;;;-0.46;98.29;100405.77;1732000;83;21347;-68
2020/12/03 00:58:57;;;;;;;40.20;25.00;;;;;;;-0.50;98.41;100409.40;1708073;83;21189;-68
2020/12/03 01:01:25;;;;;;;39.55;24.37;;;;;;;-0.51;98.68;100406.86;1708111;83;21189;-68
2020/12/03 01:03:53;;;;;;;42.98;25.45;;;;;;;-0.52;98.79;100407.31;1703981;83;21166;-68
2020/12/03 01:06:21;;;;;;;48.20;26.80;;;;;;;-0.49;98.51;100406.34;1704100;83;21629;-68
2020/12/03 01:08:49;;;;;;;48.17;27.60;;;;;;;-0.52;98.55;100406.48;1706919;83;21201;-68
2020/12/03 01:11:22;;;;;;;42.17;24.80;;;;;;;-0.56;98.63;100399.25;1691730;83;21402;-68
2020/12/03 01:13:50;;;;;;;34.48;19.32;;;;;;;-0.61;98.53;100402.02;1701553;83;21320;-68
2020/12/03 01:16:19;;;;;;;46.70;27.22;;;;;;;-0.63;98.74;100409.48;1716222;83;21332;-68
2020/12/03 01:18:47;;;;;;;48.15;26.37;;;;;;;-0.66;99.18;100400.04;1686257;83;21177;-68
2020/12/03 01:21:20;;;;;;;48.35;26.23;;;;;;;-0.63;99.13;100399.94;1713045;83;21201;-68
2020/12/03 01:23:50;;;;;;;51.10;27.93;;;;;;;-0.60;99.11;100395.06;1730609;83;21208;-68
2020/12/03 01:26:19;;;;;;;50.90;27.90;;;;;;;-0.62;99.23;100403.37;1717060;83;21643;-68
2020/12/03 01:28:47;;;;;;;43.70;24.40;;;;;;;-0.63;99.35;100394.73;1722345;83;21327;-68
2020/12/03 01:31:15;;;;;;;51.35;27.20;;;;;;;-0.61;99.15;100394.22;1732975;83;21172;-68
2020/12/03 01:33:43;;;;;;;48.35;26.95;;;;;;;-0.59;98.85;100395.00;1724321;83;21621;-68
2020/12/03 01:36:14;;;;;;;49.93;27.70;;;;;;;-0.60;99.16;100387.27;1708149;83;21630;-68
2020/12/03 01:38:42;;;;;;;52.05;28.23;;;;;;;-0.59;99.25;100388.97;1727418;83;21205;-68
2020/12/03 01:41:10;;;;;;;51.25;27.60;;;;;;;-0.60;99.18;100388.13;1716757;83;21307;-68
2020/12/03 01:43:42;;;;;;;50.80;28.05;;;;;;;-0.55;99.10;100393.59;1725180;83;21146;-68
2020/12/03 01:46:10;;;;;;;52.60;29.10;;;;;;;-0.53;98.68;100392.62;1716802;83;21171;-68
2020/12/03 01:48:51;;;;;;;55.75;28.90;;;;;;;-0.54;98.91;100393.55;1730707;83;21193;-68
2020/12/03 01:51:36;;;;;;;52.10;28.83;;;;;;;-0.54;98.83;100388.77;1720857;83;21607;-68
2020/12/03 01:54:08;;;;;;;49.70;28.35;;;;;;;-0.54;98.63;100383.58;1731322;83;21319;-68
2020/12/03 01:56:44;;;;;;;49.95;27.20;;;;;;;-0.56;98.54;100390.59;1709718;83;21622;-68
2020/12/03 01:59:12;;;;;;;53.25;28.27;;;;;;;-0.59;98.68;100381.17;1664343;83;21204;-68
2020/12/03 02:01:40;;;;;;;50.92;27.77;;;;;;;-0.57;98.60;100385.86;1712560;83;21356;-68
2020/12/03 02:04:08;;;;;;;51.35;28.83;;;;;;;-0.57;98.57;100388.45;1703976;83;21678;-68
2020/12/03 02:06:40;;;;;;;50.60;28.32;;;;;;;-0.60;98.75;100382.94;1709374;83;21607;-69
2020/12/03 02:09:11;;;;;;;55.75;29.12;;;;;;;-0.57;98.92;100386.31;1725672;83;21196;-68
2020/12/03 02:11:39;;;;;;;52.75;29.65;;;;;;;-0.56;98.88;100385.39;1707703;83;21710;-68
2020/12/03 02:14:10;;;;;;;51.42;27.77;;;;;;;-0.53;98.60;100380.09;1730615;83;21337;-68
2020/12/03 02:16:40;;;;;;;51.10;29.77;;;;;;;-0.56;98.61;100386.27;1732478;83;21602;-68
2020/12/03 02:19:21;;;;;;;45.43;26.27;;;;;;;-0.60;98.52;100392.03;1725665;83;21340;-68
2020/12/03 02:22:01;;;;;;;52.33;27.95;;;;;;;-0.60;98.46;100388.13;1715305;83;21176;-68
2020/12/03 02:24:32;;;;;;;56.28;29.85;;;;;;;-0.63;98.45;100388.70;1727620;83;21157;-68
2020/12/03 02:27:01;;;;;;;52.08;28.32;;;;;;;-0.66;99.01;100390.95;1732348;83;21193;-68
2020/12/03 02:29:29;;;;;;;52.00;27.10;;;;;;;-0.64;99.07;100390.89;1733121;83;21792;-68
2020/12/03 02:31:57;;;;;;;51.28;30.05;;;;;;;-0.66;98.86;100393.55;1729971;83;21158;-68
2020/12/03 02:34:24;;;;;;;52.90;28.67;;;;;;;-0.68;99.06;100390.16;1710411;83;21581;-68
2020/12/03 02:36:56;;;;;;;52.75;28.12;;;;;;;-0.69;99.18;100390.22;1698485;83;21745;-68
2020/12/03 02:39:25;;;;;;;47.80;27.65;;;;;;;-0.70;99.08;100386.78;1720843;83;21253;-68
2020/12/03 02:41:54;;;;;;;53.92;28.67;;;;;;;-0.70;99.08;100385.48;1707728;83;21241;-68
2020/12/03 02:44:22;;;;;;;54.00;27.67;;;;;;;-0.72;99.24;100382.10;1712773;83;21209;-68
2020/12/03 02:46:51;;;;;;;41.95;25.32;;;;;;;-0.71;99.72;100382.51;1712000;83;21583;-68
2020/12/03 02:49:18;;;;;;;54.00;29.90;;;;;;;-0.68;99.83;100384.12;1723979;83;21217;-68
2020/12/03 02:51:49;;;;;;;52.27;28.60;;;;;;;-0.65;99.73;100384.86;1733156;83;21150;-68
2020/12/03 02:54:16;;;;;;;47.25;26.40;;;;;;;-0.61;99.69;100390.78;1705035;83;21625;-68
2020/12/03 02:56:45;;;;;;;49.18;27.13;;;;;;;-0.60;99.27;100388.13;1694124;83;21760;-68
2020/12/03 02:59:13;;;;;;;43.17;24.60;;;;;;;-0.60;99.19;100382.94;1704051;83;21586;-68
2020/12/03 03:01:40;;;;;;;54.67;28.83;;;;;;;-0.59;99.43;100382.02;1708000;83;21674;-68
2020/12/03 03:04:08;;;;;;;53.80;28.12;;;;;;;-0.59;99.32;100383.31;1691932;83;21559;-68
2020/12/03 03:06:36;;;;;;;55.67;28.75;;;;;;;-0.61;99.20;100386.89;1717442;83;21206;-68
2020/12/03 03:09:05;;;;;;;51.68;27.30;;;;;;;-0.59;99.22;100388.51;1731988;83;21157;-68
2020/12/03 03:11:34;;;;;;;48.87;27.02;;;;;;;-0.62;98.90;100382.16;1730718;83;21618;-68
2020/12/03 03:14:03;;;;;;;50.50;26.42;;;;;;;-0.65;98.82;100386.16;1718376;83;21197;-68
2020/12/03 03:16:31;;;;;;;49.53;27.58;;;;;;;-0.66;98.69;100387.05;1716216;83;21598;-68
2020/12/03 03:19:00;;;;;;;50.08;26.23;;;;;;;-0.69;98.95;100387.19;1713010;83;21634;-69
2020/12/03 03:21:28;;;;;;;52.33;26.68;;;;;;;-0.68;98.99;100386.73;1716984;83;21193;-68
2020/12/03 03:23:57;;;;;;;51.85;27.80;;;;;;;-0.68;98.82;100387.56;1718835;83;21638;-68
2020/12/03 03:26:26;;;;;;;52.38;24.82;;;;;;;-0.67;98.64;100381.94;1720572;83;21197;-68
2020/12/03 03:28:53;;;;;;;55.43;27.70;;;;;;;-0.68;98.72;100379.77;1704812;83;21260;-68
2020/12/03 03:31:22;;;;;;;50.43;26.52;;;;;;;-0.68;98.31;100377.63;1708135;83;21207;-68
2020/12/03 03:33:49;;;;;;;51.63;28.07;;;;;;;-0.74;98.36;100374.82;1723228;83;21177;-68
2020/12/03 03:36:18;;;;;;;51.35;26.87;;;;;;;-0.75;98.52;100380.91;1724558;83;21198;-68
2020/12/03 03:38:46;;;;;;;49.38;26.07;;;;;;;-0.77;98.73;100379.28;1712245;83;21201;-68
2020/12/03 03:41:13;;;;;;;52.62;27.17;;;;;;;-0.78;98.66;100379.75;1710445;83;21150;-68
2020/12/03 03:43:40;;;;;;;49.38;26.68;;;;;;;-0.81;98.60;100381.98;1731612;83;21153;-68
2020/12/03 03:46:08;;;;;;;55.63;28.12;;;;;;;-0.84;98.79;100383.42;1705722;83;21339;-68
2020/12/03 03:48:36;;;;;;;45.45;24.47;;;;;;;-0.82;99.00;100380.31;1716223;83;21217;-68
2020/12/03 03:51:05;;;;;;;50.98;27.77;;;;;;;-0.79;98.83;100376.31;1720023;83;21633;-68
2020/12/03 03:53:33;;;;;;;54.53;27.42;;;;;;;-0.79;98.65;100382.80;1691423;83;21178;-68
2020/12/03 03:56:04;;;;;;;47.83;25.30;;;;;;;-0.78;98.56;100381.05;1708281;83;21775;-68
2020/12/03 03:58:32;;;;;;;50.25;25.97;;;;;;;-0.79;98.45;100383.23;1710649;83;21198;-68
2020/12/03 04:00:59;;;;;;;47.48;25.75;;;;;;;-0.85;98.12;100376.98;1727846;83;21335;-68
2020/12/03 04:03:28;;;;;;;49.13;26.07;;;;;;;-0.90;98.53;100377.61;1731493;83;21174;-68
2020/12/03 04:05:56;;;;;;;49.67;27.37;;;;;;;-0.89;98.80;100380.61;1722070;83;21193;-68
2020/12/03 04:08:24;;;;;;;54.63;26.57;;;;;;;-0.88;99.17;100382.28;1725796;83;21174;-68
2020/12/03 04:10:52;;;;;;;46.73;26.25;;;;;;;-0.86;99.09;100371.39;1726039;83;21611;-68
2020/12/03 04:13:22;;;;;;;51.77;25.17;;;;;;;-0.87;99.00;100371.01;1726323;83;21205;-68
2020/12/03 04:15:49;;;;;;;48.48;25.70;;;;;;;-0.87;99.08;100373.14;1704107;83;21197;-68
2020/12/03 04:18:21;;;;;;;50.75;25.77;;;;;;;-0.87;99.05;100369.25;1718989;83;21186;-68
2020/12/03 04:20:48;;;;;;;46.35;25.65;;;;;;;-0.85;99.07;100366.14;1727583;83;21661;-68
2020/12/03 04:23:16;;;;;;;49.75;26.87;;;;;;;-0.87;98.73;100367.95;1704072;83;21662;-68
2020/12/03 04:25:44;;;;;;;44.80;22.80;;;;;;;-0.87;98.93;100374.44;1717509;83;21323;-68
2020/12/03 04:28:11;;;;;;;42.27;22.35;;;;;;;-0.86;99.04;100376.58;1732382;83;21625;-69
2020/12/03 04:30:39;;;;;;;42.38;23.02;;;;;;;-0.84;98.82;100374.77;1689534;83;21626;-68
2020/12/03 04:33:07;;;;;;;46.75;24.45;;;;;;;-0.84;98.86;100369.14;1731561;83;21609;-68
2020/12/03 04:35:37;;;;;;;47.62;24.30;;;;;;;-0.82;98.97;100376.42;1726197;83;21185;-68
2020/12/03 04:38:07;;;;;;;43.58;24.65;;;;;;;-0.81;98.77;100374.20;1720911;83;21379;-68
2020/12/03 04:40:41;;;;;;;41.00;23.87;;;;;;;-0.78;98.41;100373.25;1712990;83;21193;-68
2020/12/03 04:43:32;;;;;;;43.00;23.32;;;;;;;-0.81;98.33;100378.55;1708142;83;21614;-68
2020/12/03 04:46:27;;;;;;;42.15;23.70;;;;;;;-0.81;98.35;100378.55;1703217;83;21602;-68
2020/12/03 04:49:25;;;;;;;41.65;24.10;;;;;;;-0.81;98.04;100386.34;1720830;83;21765;-68
2020/12/03 04:51:59;;;;;;;42.58;22.48;;;;;;;-0.84;98.05;100389.05;1704115;83;21221;-68
2020/12/03 04:54:50;;;;;;;38.58;21.70;;;;;;;-0.89;98.08;100388.41;1725076;83;21181;-68
2020/12/03 04:57:49;;;;;;;37.70;20.70;;;;;;;-0.89;98.36;100389.70;1685057;83;21626;-68
2020/12/03 05:00:46;;;;;;;40.98;21.80;;;;;;;-0.88;98.51;100384.88;1730659;83;21630;-67
2020/12/03 05:03:34;;;;;;;39.23;21.25;;;;;;;-0.87;98.79;100380.09;1716551;83;21185;-69
2020/12/03 05:06:48;;;;;;;41.77;22.05;;;;;;;-0.84;98.73;100378.66;1803993;78;23585;-68
2020/12/03 05:09:48;;;;;;;40.20;21.80;;;;;;;-0.89;98.72;100384.51;1700838;83;21218;-68
2020/12/03 05:12:21;;;;;;;35.75;20.08;;;;;;;-0.88;99.00;100383.59;1660855;81;21184;-68
2020/12/03 05:14:52;;;;;;;37.58;20.37;;;;;;;-0.84;99.08;100378.66;1692749;83;21172;-68
2020/12/03 05:17:51;;;;;;;37.45;21.20;;;;;;;-0.79;99.15;100381.94;1690730;82;21178;-68
2020/12/03 05:20:30;;;;;;;36.50;20.62;;;;;;;-0.79;98.92;100382.80;1723314;82;21541;-68
2020/12/03 05:23:06;;;;;;;40.88;22.05;;;;;;;-0.78;98.89;100382.34;1754402;81;21286;-68
2020/12/03 05:25:35;;;;;;;40.50;21.97;;;;;;;-0.77;98.78;100384.02;1708901;82;21199;-68
2020/12/03 05:28:39;;;;;;;36.08;19.90;;;;;;;-0.80;98.79;100378.97;1747291;81;21159;-68
2020/12/03 05:31:23;;;;;;;41.42;21.20;;;;;;;-0.81;99.04;100377.25;1720087;83;21184;-68
2020/12/03 05:33:57;;;;;;;41.53;21.33;;;;;;;-0.80;99.17;100384.16;1692741;83;21585;-68
2020/12/03 05:36:33;;;;;;;37.60;20.95;;;;;;;-0.80;99.09;100381.56;1729814;83;21640;-68
2020/12/03 05:39:04;;;;;;;37.85;20.35;;;;;;;-0.76;99.12;100389.63;1729094;82;21616;-69
2020/12/03 05:41:36;;;;;;;35.30;19.75;;;;;;;-0.73;99.26;100393.41;1716186;83;21619;-69
2020/12/03 05:44:07;;;;;;;38.78;19.20;;;;;;;-0.71;99.02;100390.30;1718918;82;21251;-68
2020/12/03 05:46:35;;;;;;;32.45;18.55;;;;;;;-0.71;98.67;100392.90;1684336;83;21715;-68
2020/12/03 05:49:05;;;;;;;33.70;19.25;;;;;;;-0.71;98.42;100394.62;1696887;83;21203;-68
2020/12/03 05:51:33;;;;;;;34.33;18.62;;;;;;;-0.73;98.73;100397.73;1726355;83;21180;-69
2020/12/03 05:54:04;;;;;;;33.85;19.82;;;;;;;-0.73;98.86;100394.71;1723931;82;21196;-69
2020/12/03 05:56:32;;;;;;;34.10;19.10;;;;;;;-0.73;98.66;100402.50;1699082;82;21196;-69
2020/12/03 05:59:19;;;;;;;34.83;18.50;;;;;;;-0.73;98.78;100401.20;1719087;83;21168;-69
2020/12/03 06:02:14;;;;;;;34.08;18.70;;;;;;;-0.75;98.82;100404.28;1700468;83;21159;-69
2020/12/03 06:04:49;;;;;;;32.10;18.32;;;;;;;-0.71;98.80;100406.31;1727926;83;21628;-68
2020/12/03 06:07:31;;;;;;;36.15;18.40;;;;;;;-0.72;98.84;100397.69;1716982;82;21326;-68
2020/12/03 06:10:33;;;;;;;36.67;19.17;;;;;;;-0.71;99.19;100398.09;1712279;83;21183;-69
2020/12/03 06:13:34;;;;;;;32.20;18.80;;;;;;;-0.72;98.88;100395.09;1714004;83;21727;-69
2020/12/03 06:16:06;;;;;;;31.00;18.05;;;;;;;-0.70;98.88;100402.83;1708112;83;21165;-68
2020/12/03 06:18:56;;;;;;;39.53;19.73;;;;;;;-0.70;99.06;100396.33;1689223;84;21201;-69
2020/12/03 06:21:35;;;;;;;37.15;19.55;;;;;;;-0.72;98.81;100391.66;1681539;84;21601;-68
2020/12/03 06:24:19;;;;;;;34.83;19.23;;;;;;;-0.77;99.35;100398.30;1686535;84;21607;-70
2020/12/03 06:27:05;;;;;;;34.88;18.57;;;;;;;-0.74;99.35;100393.47;1691840;84;21185;-69
2020/12/03 06:29:54;;;;;;;29.65;17.55;;;;;;;-0.70;99.59;100389.84;1695985;84;21642;-69
2020/12/03 06:33:04;;;;;;;34.03;18.65;;;;;;;-0.69;99.47;100397.58;1663257;84;21244;-69
2020/12/03 06:35:45;;;;;;;30.68;16.32;;;;;;;-0.70;99.60;100387.24;1699329;83;21318;-69
2020/12/03 06:38:28;;;;;;;35.92;18.20;;;;;;;-0.65;99.22;100396.55;1705250;82;21144;-68
2020/12/03 06:41:15;;;;;;;;;;;;;;;-0.67;99.02;100395.77;1714317;82;21186;-68
2020/12/03 06:43:55;;;;;;;37.70;18.77;;;;;;;-0.67;99.23;100397.53;1703520;82;20134;-69
2020/12/03 06:46:46;;;;;;;37.65;19.55;;;;;;;-0.72;99.32;100398.98;1712488;83;21219;-69
2020/12/03 06:49:34;;;;;;;34.03;17.90;;;;;;;-0.75;99.11;100396.49;1718273;82;21561;-68
2020/12/03 06:52:23;;;;;;;35.10;19.17;;;;;;;-0.79;99.34;100398.39;1720087;82;21278;-68
2020/12/03 06:55:31;;;;;;;36.95;19.17;;;;;;;-0.80;99.55;100399.74;1718600;82;21565;-69
2020/12/03 06:58:14;;;;;;;36.77;19.32;;;;;;;-0.80;99.85;100402.34;1715802;82;21175;-69
2020/12/03 07:01:20;;;;;;;36.98;18.70;;;;;;;-0.78;99.80;100401.83;1711602;82;21164;-69
2020/12/03 07:04:27;;;;;;;35.23;18.92;;;;;;;-0.80;99.79;100406.23;1718809;82;21309;-69
2020/12/03 07:07:25;;;;;;;34.63;18.52;;;;;;;-0.80;99.95;100408.83;1699266;82;21255;-69
2020/12/03 07:10:32;;;;;;;36.63;18.60;;;;;;;-0.83;100.00;100401.98;1711309;83;21234;-68
2020/12/03 07:13:24;;;;;;;42.60;20.82;;;;;;;-0.80;100.00;100405.77;1712588;82;21220;-68
2020/12/03 07:16:10;;;;;;;38.55;21.30;;;;;;;-0.79;100.00;100407.48;1673352;83;21181;-68
2020/12/03 07:18:55;;;;;;;35.98;19.55;;;;;;;-0.74;100.00;100408.59;1697211;83;21640;-68
2020/12/03 07:22:04;;;;;;;34.53;18.60;;;;;;;-0.71;100.00;100414.98;1714282;83;21275;-69
2020/12/03 07:24:35;;;;;;;36.83;19.95;;;;;;;-0.67;100.00;100415.25;1706382;83;21158;-69
2020/12/03 07:27:42;;;;;;;33.58;19.45;;;;;;;-0.66;100.00;100410.43;1693651;84;21235;-69
2020/12/03 07:30:43;;;;;;;39.60;19.98;;;;;;;-0.68;100.00;100408.34;1687688;84;21650;-70
2020/12/03 07:33:50;;;;;;;41.02;21.82;;;;;;;-0.71;99.61;100411.52;1695560;84;21622;-69
2020/12/03 07:36:36;;;;;;;44.15;21.93;;;;;;;-0.72;100.00;100422.83;1641396;86;21308;-69
2020/12/03 07:39:16;;;;;;;39.92;21.10;;;;;;;-0.70;100.00;100416.66;1649835;86;21348;-69
2020/12/03 07:41:58;;;;;;;40.48;21.27;;;;;;;-0.71;100.00;100418.88;1673888;83;21721;-68
2020/12/03 07:44:45;;;;;;;39.42;20.77;;;;;;;-0.72;99.96;100424.13;1729476;83;21219;-68
2020/12/03 07:47:22;;;;;;;43.98;23.52;;;;;;;-0.73;100.00;100416.80;1727350;83;21436;-68
2020/12/03 07:49:54;;;;;;;43.80;23.75;;;;;;;-0.71;100.00;100420.60;1682756;83;21146;-69
2020/12/03 07:52:38;;;;;;;37.33;21.23;;;;;;;-0.71;99.97;100416.28;1706093;83;21914;-69
2020/12/03 07:55:27;;;;;;;43.58;22.45;;;;;;;-0.69;99.98;100417.49;1728417;83;21182;-68
2020/12/03 07:57:57;;;;;;;39.33;20.05;;;;;;;-0.71;99.88;100418.01;1646309;84;21324;-69
2020/12/03 08:00:48;;;;;;;42.55;20.95;;;;;;;-0.69;99.96;100410.56;1674291;84;21165;-69
2020/12/03 08:03:36;;;;;;;37.58;22.87;;;;;;;-0.68;99.75;100413.55;1695294;84;21226;-69
2020/12/03 08:06:19;;;;;;;40.28;23.47;;;;;;;-0.67;99.64;100413.95;1682089;84;21789;-70
2020/12/03 08:09:05;;;;;;;42.60;23.30;;;;;;;-0.67;99.57;100410.05;1686431;84;21162;-70
2020/12/03 08:12:05;;;;;;;37.67;22.07;;;;;;;-0.68;99.42;100412.25;1687093;84;21201;-69
2020/12/03 08:14:37;;;;;;;42.58;23.80;;;;;;;-0.67;99.54;100406.16;1681820;84;21144;-69
2020/12/03 08:17:19;;;;;;;46.18;25.12;;;;;;;-0.69;99.38;100400.18;1708449;84;21600;-69
2020/12/03 08:20:08;;;;;;;42.50;24.98;;;;;;;-0.68;99.73;100403.61;1695202;84;21196;-69
2020/12/03 08:22:51;;;;;;;45.08;26.25;;;;;;;-0.64;99.53;100414.27;1704111;84;21160;-68
2020/12/03 08:25:28;;;;;;;48.85;25.17;;;;;;;-0.63;99.49;100414.68;1654394;83;21193;-68
2020/12/03 08:28:00;;;;;;;46.33;26.17;;;;;;;-0.58;99.12;100408.83;1686622;84;21237;-69
2020/12/03 08:30:37;;;;;;;42.20;23.02;;;;;;;-0.57;98.79;100402.74;1696192;84;21618;-69
2020/12/03 08:33:18;;;;;;;44.93;24.37;;;;;;;-0.58;98.97;100398.44;1700730;83;21197;-68
2020/12/03 08:36:00;;;;;;;45.60;23.25;;;;;;;-0.60;98.89;100395.92;1682409;84;21169;-69
2020/12/03 08:38:41;;;;;;;51.65;26.23;;;;;;;-0.59;99.02;100397.60;1701723;84;21259;-69
2020/12/03 08:41:12;;;;;;;51.75;27.70;;;;;;;-0.55;98.87;100397.49;1700532;84;21375;-68
2020/12/03 08:46:40;;;;;;;46.20;25.40;;;;;;;-0.50;98.98;100395.57;1795459;78;22920;-69
2020/12/03 08:49:19;;;;;;;46.10;25.90;;;;;;;-0.51;98.70;100380.41;1775408;80;21156;-69
2020/12/03 08:51:45;;;;;;;51.23;25.82;;;;;;;-0.46;98.61;100385.44;1773639;80;21520;-68
2020/12/03 08:54:13;;;;;;;42.80;24.02;;;;;;;-0.41;98.66;100377.02;1716330;80;21620;-69
2020/12/03 08:56:44;;;;;;;44.60;22.82;;;;;;;-0.35;98.54;100373.33;1733270;83;21603;-69
2020/12/03 08:59:15;;;;;;;40.90;23.35;;;;;;;-0.34;97.87;100366.73;1754878;81;21167;-69
2020/12/03 09:01:48;;;;;;;52.30;27.98;;;;;;;-0.31;97.73;100357.53;1746687;81;21592;-70
2020/12/03 09:04:26;;;;;;;40.65;22.80;;;;;;;-0.27;97.91;100359.55;1729503;83;21188;-69
2020/12/03 09:06:54;;;;;;;46.83;26.05;;;;;;;-0.24;97.76;100359.44;1721937;81;21203;-68
2020/12/03 09:09:25;;;;;;;48.45;25.20;;;;;;;-0.23;97.50;100348.95;1709062;83;21603;-68
2020/12/03 09:11:53;;;;;;;52.17;27.00;;;;;;;-0.21;97.15;100347.16;1760498;81;21132;-70
2020/12/03 09:14:21;;;;;;;53.75;28.55;;;;;;;-0.21;97.23;100343.27;1718153;82;21616;-69
2020/12/03 09:16:56;;;;;;;47.60;26.73;;;;;;;-0.18;97.17;100342.28;1715907;82;21175;-68
2020/12/03 09:19:25;;;;;;;49.80;26.75;;;;;;;-0.17;97.03;100341.81;1757013;81;21410;-69
2020/12/03 09:21:53;;;;;;;47.13;26.45;;;;;;;-0.15;96.97;100337.39;1729511;83;21195;-69
2020/12/03 09:24:23;;;;;;;52.67;27.65;;;;;;;-0.11;96.78;100342.85;1698128;81;21199;-67
2020/12/03 09:26:57;;;;;;;52.33;27.58;;;;;;;-0.08;96.91;100336.23;1747596;81;21141;-70
2020/12/03 09:29:24;;;;;;;49.35;28.40;;;;;;;-0.05;96.77;100331.75;1715627;82;21601;-68
2020/12/03 09:32:00;;;;;;;49.75;27.73;;;;;;;-0.04;96.57;100335.19;1700334;82;21180;-69
2020/12/03 09:34:30;;;;;;;46.02;26.62;;;;;;;0.01;96.46;100333.71;1666566;84;21657;-70
2020/12/03 09:36:58;;;;;;;46.40;26.30;;;;;;;0.06;96.09;100336.97;1703523;83;21608;-68
2020/12/03 09:39:27;;;;;;;52.10;27.25;;;;;;;0.07;95.83;100329.08;1695497;84;21199;-69
2020/12/03 09:41:55;;;;;;;45.85;25.92;;;;;;;0.05;95.25;100327.00;1725479;83;21143;-69
2020/12/03 09:44:22;;;;;;;45.45;25.68;;;;;;;-0.03;94.65;100326.03;1678018;84;21604;-70
2020/12/03 09:46:51;;;;;;;48.33;27.10;;;;;;;-0.10;95.22;100324.59;1721556;82;21235;-70
2020/12/03 09:49:19;;;;;;;43.75;25.92;;;;;;;-0.09;95.62;100331.95;1670325;84;21636;-69
2020/12/03 09:51:48;;;;;;;41.15;24.40;;;;;;;-0.11;95.73;100327.25;1728221;83;21184;-69
2020/12/03 09:54:17;;;;;;;40.90;23.80;;;;;;;-0.13;95.79;100338.17;1661417;84;21583;-69
2020/12/03 09:56:46;;;;;;;38.42;24.20;;;;;;;-0.15;95.66;100339.56;1683236;83;21151;-68
2020/12/03 09:59:14;;;;;;;42.83;26.35;;;;;;;-0.13;95.69;100334.27;1715521;83;21389;-69
2020/12/03 10:02:13;;;;;;;42.15;24.27;;;;;;;-0.13;95.83;100329.07;1651622;84;21293;-70
2020/12/03 10:05:02;;;;;;;42.25;25.23;;;;;;;-0.14;95.55;100332.59;1670460;84;21204;-69
2020/12/03 10:07:44;;;;;;;43.60;25.50;;;;;;;-0.23;95.48;100330.75;1686574;84;21612;-69
2020/12/03 10:10:57;;;;;;;40.63;24.27;;;;;;;-0.24;96.07;100332.98;1692263;83;21207;-69
2020/12/03 10:13:45;;;;;;;39.60;24.45;;;;;;;-0.20;96.22;100322.00;1679506;84;21223;-69
2020/12/03 10:16:23;;;;;;;41.58;24.87;;;;;;;-0.19;96.32;100315.88;1675388;84;21358;-69
2020/12/03 10:18:53;;;;;;;44.25;26.60;;;;;;;-0.21;96.22;100305.56;1679044;83;21330;-70
2020/12/03 10:21:23;;;;;;;46.10;26.57;;;;;;;-0.23;96.03;100311.25;1717954;83;21188;-70
2020/12/03 10:24:09;;;;;;;45.10;26.60;;;;;;;-0.30;96.13;100317.64;1704404;83;21667;-70
2020/12/03 10:26:50;;;;;;;48.45;27.82;;;;;;;-0.30;96.71;100313.75;1695740;83;21620;-70
2020/12/03 10:29:36;;;;;;;46.33;26.90;;;;;;;-0.27;96.83;100312.76;1685388;84;21183;-70
2020/12/03 10:32:12;;;;;;;41.58;24.23;;;;;;;-0.28;96.94;100316.25;1720112;83;21162;-69
2020/12/03 10:34:46;;;;;;;45.55;26.33;;;;;;;-0.32;97.06;100322.03;1724526;83;21198;-70
2020/12/03 10:37:29;;;;;;;47.38;26.70;;;;;;;-0.32;97.04;100323.80;1698601;84;21600;-68
2020/12/03 10:40:04;;;;;;;47.45;27.62;;;;;;;-0.31;97.22;100316.41;1662360;84;21353;-68
2020/12/03 10:42:38;;;;;;;47.65;27.05;;;;;;;-0.31;97.38;100313.34;1720725;83;21608;-69
2020/12/03 10:45:13;;;;;;;45.38;25.25;;;;;;;-0.31;97.57;100308.60;1681137;84;21625;-69
2020/12/03 10:47:52;;;;;;;40.85;24.65;;;;;;;-0.29;97.64;100304.19;1694910;84;21191;-68
2020/12/03 10:50:20;;;;;;;45.65;25.43;;;;;;;-0.27;97.68;100303.20;1697510;83;21168;-69
2020/12/03 10:52:47;;;;;;;45.92;25.30;;;;;;;-0.25;97.75;100300.54;1670370;84;21152;-68
2020/12/03 10:55:17;;;;;;;44.63;26.15;;;;;;;-0.27;97.66;100301.06;1702202;83;21691;-68
2020/12/03 10:57:55;;;;;;;41.92;23.50;;;;;;;-0.27;97.69;100299.77;1693973;84;21345;-68
2020/12/03 11:00:20;;;;;;;41.68;24.00;;;;;;;-0.24;97.69;100290.55;1727480;83;21163;-69
2020/12/03 11:02:49;;;;;;;46.92;26.10;;;;;;;-0.16;97.57;100292.36;1704630;83;21305;-69
2020/12/03 11:05:30;;;;;;;44.35;25.17;;;;;;;-0.11;97.57;100289.55;1695048;84;21167;-70
2020/12/03 11:08:34;;;;;;;;;;;;;;;-0.08;97.14;100281.63;1665585;84;21207;-70
2020/12/03 11:11:43;;;;;;;43.73;25.57;;;;;;;-0.09;96.94;100285.98;1691132;83;20136;-69
2020/12/03 11:17:27;;;;;;;40.35;24.23;;;;;;;0.00;96.71;100283.46;1793816;78;22994;-68
2020/12/03 11:19:58;;;;;;;44.48;24.45;;;;;;;-0.05;96.70;100286.70;1707088;83;21184;-69
2020/12/03 11:22:42;;;;;;;39.83;22.58;;;;;;;-0.05;96.40;100283.64;1757067;80;21187;-69
2020/12/03 11:25:17;;;;;;;41.23;22.30;;;;;;;-0.06;96.07;100287.14;1756163;80;21325;-68
2020/12/03 11:27:44;;;;;;;44.50;24.80;;;;;;;-0.05;96.06;100298.41;1712237;83;21756;-70
2020/12/03 11:30:15;;;;;;;44.00;24.67;;;;;;;-0.08;96.28;100289.43;1757870;80;21172;-72
2020/12/03 11:32:48;;;;;;;43.95;25.27;;;;;;;-0.08;96.46;100294.63;1763728;81;21133;-69
2020/12/03 11:35:28;;;;;;;43.02;23.15;;;;;;;-0.07;96.61;100283.33;1744465;82;21164;-70
2020/12/03 11:37:58;;;;;;;39.70;23.98;;;;;;;-0.06;96.47;100287.14;1712657;82;21661;-70
2020/12/03 11:46:43;;;;;;;45.23;25.92;;;;;;;-0.01;96.85;100279.16;1750279;80;21286;-69
2020/12/03 11:48:54;;;;;;;40.92;24.18;;;;;;;0.01;96.46;100280.40;1719383;83;21395;-70
2020/12/03 11:51:33;;;;;;;43.92;26.07;;;;;;;0.00;96.31;100271.76;1756374;81;21183;-69
2020/12/03 11:54:07;;;;;;;37.50;22.95;;;;;;;-0.01;96.22;100274.80;1703638;83;21675;-68
2020/12/03 11:56:36;;;;;;;37.50;22.87;;;;;;;0.00;95.88;100273.06;1746030;81;21635;-68
2020/12/03 11:59:19;;;;;;;37.80;23.10;;;;;;;0.01;95.58;100276.50;1743997;81;21587;-69
2020/12/03 12:01:54;;;;;;;41.55;23.98;;;;;;;-0.03;95.43;100271.88;1741946;81;21160;-71